sensor_id;sensor_type;location;lat;lon;timestamp;P1;durP1;ratioP1;P2;durP2;ratioP2
67156;SDS011;54086;50.126;8.710;2023-01-10T00:01:24;4.90;;;1.70;;
67156;SDS011;54086;50.126;8.710;2023-01-10T00:03:49;4.23;;;1.60;;
67156;SDS011;54086;50.126;8.710;2023-01-10T00:06:15;6.28;;;1.58;;
67156;SDS011;54086;50.126;8.710;2023-01-10T00:08:40;5.40;;;1.47;;
67156;SDS011;54086;50.126;8.710;2023-01-10T00:11:06;6.30;;;1.90;;
67156;SDS011;54086;50.126;8.710;2023-01-10T00:13:53;5.68;;;1.50;;
67156;SDS011;54086;50.126;8.710;2023-01-10T00:16:19;5.10;;;1.40;;
67156;SDS011;54086;50.126;8.710;2023-01-10T00:18:45;5.43;;;1.70;;
67156;SDS011;54086;50.126;8.710;2023-01-10T00:21:11;5.85;;;1.42;;
67156;SDS011;54086;50.126;8.710;2023-01-10T00:23:38;4.40;;;1.40;;
67156;SDS011;54086;50.126;8.710;2023-01-10T00:26:04;4.80;;;1.38;;
67156;SDS011;54086;50.126;8.710;2023-01-10T00:28:30;5.28;;;1.50;;
67156;SDS011;54086;50.126;8.710;2023-01-10T00:30:58;4.90;;;1.45;;
67156;SDS011;54086;50.126;8.710;2023-01-10T00:33:34;4.57;;;1.13;;
67156;SDS011;54086;50.126;8.710;2023-01-10T00:36:01;5.00;;;1.60;;
67156;SDS011;54086;50.126;8.710;2023-01-10T00:38:28;6.18;;;1.52;;
67156;SDS011;54086;50.126;8.710;2023-01-10T00:40:55;4.68;;;1.50;;
67156;SDS011;54086;50.126;8.710;2023-01-10T00:43:20;6.33;;;1.40;;
67156;SDS011;54086;50.126;8.710;2023-01-10T00:46:04;5.47;;;1.20;;
67156;SDS011;54086;50.126;8.710;2023-01-10T00:48:29;5.10;;;1.73;;
67156;SDS011;54086;50.126;8.710;2023-01-10T00:50:55;4.63;;;1.30;;
67156;SDS011;54086;50.126;8.710;2023-01-10T00:53:20;4.90;;;1.50;;
67156;SDS011;54086;50.126;8.710;2023-01-10T00:55:46;5.60;;;1.60;;
67156;SDS011;54086;50.126;8.710;2023-01-10T00:58:12;6.23;;;1.47;;
67156;SDS011;54086;50.126;8.710;2023-01-10T01:00:38;4.25;;;1.20;;
67156;SDS011;54086;50.126;8.710;2023-01-10T01:03:04;3.57;;;1.00;;
67156;SDS011;54086;50.126;8.710;2023-01-10T01:05:32;4.10;;;1.10;;
67156;SDS011;54086;50.126;8.710;2023-01-10T01:07:58;7.57;;;1.40;;
67156;SDS011;54086;50.126;8.710;2023-01-10T01:10:23;5.77;;;1.40;;
67156;SDS011;54086;50.126;8.710;2023-01-10T01:12:52;5.32;;;1.60;;
67156;SDS011;54086;50.126;8.710;2023-01-10T01:15:23;4.75;;;1.40;;
67156;SDS011;54086;50.126;8.710;2023-01-10T01:17:49;4.28;;;1.17;;
67156;SDS011;54086;50.126;8.710;2023-01-10T01:20:15;3.80;;;1.07;;
67156;SDS011;54086;50.126;8.710;2023-01-10T01:22:40;4.63;;;1.67;;
67156;SDS011;54086;50.126;8.710;2023-01-10T01:25:06;6.82;;;1.60;;
67156;SDS011;54086;50.126;8.710;2023-01-10T01:27:32;4.33;;;1.33;;
67156;SDS011;54086;50.126;8.710;2023-01-10T01:29:58;5.15;;;1.50;;
67156;SDS011;54086;50.126;8.710;2023-01-10T01:32:24;5.13;;;1.70;;
67156;SDS011;54086;50.126;8.710;2023-01-10T01:34:49;3.73;;;1.20;;
67156;SDS011;54086;50.126;8.710;2023-01-10T01:37:15;5.53;;;1.73;;
67156;SDS011;54086;50.126;8.710;2023-01-10T01:39:43;4.18;;;1.40;;
67156;SDS011;54086;50.126;8.710;2023-01-10T01:42:27;4.73;;;1.40;;
67156;SDS011;54086;50.126;8.710;2023-01-10T01:47:36;5.82;;;1.75;;
67156;SDS011;54086;50.126;8.710;2023-01-10T01:50:13;5.30;;;1.60;;
67156;SDS011;54086;50.126;8.710;2023-01-10T01:52:41;5.20;;;1.38;;
67156;SDS011;54086;50.126;8.710;2023-01-10T01:55:06;5.23;;;1.50;;
67156;SDS011;54086;50.126;8.710;2023-01-10T01:57:32;4.03;;;1.20;;
67156;SDS011;54086;50.126;8.710;2023-01-10T01:59:58;6.17;;;1.90;;
67156;SDS011;54086;50.126;8.710;2023-01-10T02:02:30;4.07;;;1.60;;
67156;SDS011;54086;50.126;8.710;2023-01-10T02:07:36;4.72;;;1.40;;
67156;SDS011;54086;50.126;8.710;2023-01-10T02:12:52;5.23;;;1.40;;
67156;SDS011;54086;50.126;8.710;2023-01-10T02:15:19;4.85;;;1.13;;
67156;SDS011;54086;50.126;8.710;2023-01-10T02:17:46;4.35;;;1.42;;
67156;SDS011;54086;50.126;8.710;2023-01-10T02:20:12;5.63;;;1.38;;
67156;SDS011;54086;50.126;8.710;2023-01-10T02:36:59;4.78;;;1.33;;
67156;SDS011;54086;50.126;8.710;2023-01-10T02:42:22;4.30;;;1.45;;
67156;SDS011;54086;50.126;8.710;2023-01-10T02:47:36;4.75;;;1.52;;
67156;SDS011;54086;50.126;8.710;2023-01-10T02:50:21;4.40;;;1.30;;
67156;SDS011;54086;50.126;8.710;2023-01-10T02:52:52;5.20;;;1.40;;
67156;SDS011;54086;50.126;8.710;2023-01-10T02:55:17;3.95;;;1.10;;
67156;SDS011;54086;50.126;8.710;2023-01-10T02:57:50;3.58;;;1.17;;
67156;SDS011;54086;50.126;8.710;2023-01-10T03:00:31;3.60;;;1.20;;
67156;SDS011;54086;50.126;8.710;2023-01-10T03:03:23;4.50;;;1.30;;
67156;SDS011;54086;50.126;8.710;2023-01-10T03:08:36;4.15;;;1.35;;
67156;SDS011;54086;50.126;8.710;2023-01-10T03:11:07;5.30;;;1.70;;
67156;SDS011;54086;50.126;8.710;2023-01-10T03:16:05;5.93;;;1.27;;
67156;SDS011;54086;50.126;8.710;2023-01-10T03:18:41;6.53;;;1.45;;
67156;SDS011;54086;50.126;8.710;2023-01-10T03:21:11;5.25;;;1.23;;
67156;SDS011;54086;50.126;8.710;2023-01-10T03:23:37;4.87;;;1.20;;
67156;SDS011;54086;50.126;8.710;2023-01-10T03:26:03;3.87;;;1.20;;
67156;SDS011;54086;50.126;8.710;2023-01-10T03:28:31;4.43;;;1.35;;
67156;SDS011;54086;50.126;8.710;2023-01-10T03:31:09;4.05;;;1.40;;
67156;SDS011;54086;50.126;8.710;2023-01-10T03:33:38;3.90;;;1.10;;
67156;SDS011;54086;50.126;8.710;2023-01-10T03:36:24;5.00;;;1.02;;
67156;SDS011;54086;50.126;8.710;2023-01-10T03:44:52;5.05;;;1.30;;
67156;SDS011;54086;50.126;8.710;2023-01-10T03:47:24;5.80;;;1.30;;
67156;SDS011;54086;50.126;8.710;2023-01-10T03:50:00;3.90;;;1.13;;
67156;SDS011;54086;50.126;8.710;2023-01-10T03:52:31;6.47;;;1.30;;
67156;SDS011;54086;50.126;8.710;2023-01-10T03:54:58;6.40;;;1.70;;
67156;SDS011;54086;50.126;8.710;2023-01-10T03:57:26;4.65;;;1.52;;
67156;SDS011;54086;50.126;8.710;2023-01-10T03:59:53;3.53;;;1.13;;
67156;SDS011;54086;50.126;8.710;2023-01-10T04:02:21;5.45;;;1.20;;
67156;SDS011;54086;50.126;8.710;2023-01-10T04:04:47;4.65;;;1.27;;
67156;SDS011;54086;50.126;8.710;2023-01-10T04:07:12;5.27;;;1.53;;
67156;SDS011;54086;50.126;8.710;2023-01-10T04:09:37;3.60;;;1.20;;
67156;SDS011;54086;50.126;8.710;2023-01-10T04:12:03;5.33;;;1.20;;
67156;SDS011;54086;50.126;8.710;2023-01-10T04:14:28;5.13;;;1.43;;
67156;SDS011;54086;50.126;8.710;2023-01-10T04:16:56;4.68;;;1.65;;
67156;SDS011;54086;50.126;8.710;2023-01-10T04:19:21;5.20;;;1.53;;
67156;SDS011;54086;50.126;8.710;2023-01-10T04:21:47;5.05;;;1.38;;
67156;SDS011;54086;50.126;8.710;2023-01-10T04:24:12;6.77;;;1.83;;
67156;SDS011;54086;50.126;8.710;2023-01-10T04:26:38;4.97;;;1.90;;
67156;SDS011;54086;50.126;8.710;2023-01-10T04:29:03;9.97;;;1.80;;
67156;SDS011;54086;50.126;8.710;2023-01-10T04:31:30;5.03;;;1.60;;
67156;SDS011;54086;50.126;8.710;2023-01-10T04:33:55;5.28;;;1.40;;
67156;SDS011;54086;50.126;8.710;2023-01-10T04:36:21;4.47;;;1.40;;
67156;SDS011;54086;50.126;8.710;2023-01-10T04:38:46;6.63;;;1.50;;
67156;SDS011;54086;50.126;8.710;2023-01-10T04:41:11;6.33;;;1.27;;
67156;SDS011;54086;50.126;8.710;2023-01-10T04:43:37;6.10;;;1.87;;
67156;SDS011;54086;50.126;8.710;2023-01-10T04:46:02;5.90;;;1.50;;
67156;SDS011;54086;50.126;8.710;2023-01-10T04:48:28;7.28;;;1.85;;
67156;SDS011;54086;50.126;8.710;2023-01-10T04:50:53;7.30;;;1.63;;
67156;SDS011;54086;50.126;8.710;2023-01-10T04:53:19;6.00;;;1.23;;
67156;SDS011;54086;50.126;8.710;2023-01-10T04:55:45;5.38;;;1.60;;
67156;SDS011;54086;50.126;8.710;2023-01-10T04:58:11;7.30;;;1.90;;
67156;SDS011;54086;50.126;8.710;2023-01-10T05:00:37;7.13;;;1.50;;
67156;SDS011;54086;50.126;8.710;2023-01-10T05:03:03;4.83;;;1.40;;
67156;SDS011;54086;50.126;8.710;2023-01-10T05:05:28;4.57;;;1.33;;
67156;SDS011;54086;50.126;8.710;2023-01-10T05:07:54;5.93;;;1.58;;
67156;SDS011;54086;50.126;8.710;2023-01-10T05:10:19;7.47;;;2.00;;
67156;SDS011;54086;50.126;8.710;2023-01-10T05:12:45;9.30;;;1.73;;
67156;SDS011;54086;50.126;8.710;2023-01-10T05:15:10;9.30;;;1.80;;
67156;SDS011;54086;50.126;8.710;2023-01-10T05:17:36;6.93;;;1.83;;
67156;SDS011;54086;50.126;8.710;2023-01-10T05:20:01;5.45;;;1.85;;
67156;SDS011;54086;50.126;8.710;2023-01-10T05:22:27;5.33;;;1.67;;
67156;SDS011;54086;50.126;8.710;2023-01-10T05:24:52;9.23;;;1.70;;
67156;SDS011;54086;50.126;8.710;2023-01-10T05:27:18;6.93;;;1.73;;
67156;SDS011;54086;50.126;8.710;2023-01-10T05:29:43;9.67;;;2.80;;
67156;SDS011;54086;50.126;8.710;2023-01-10T05:32:08;9.82;;;2.58;;
67156;SDS011;54086;50.126;8.710;2023-01-10T05:34:34;7.07;;;2.07;;
67156;SDS011;54086;50.126;8.710;2023-01-10T05:36:59;7.93;;;2.40;;
67156;SDS011;54086;50.126;8.710;2023-01-10T05:39:25;11.30;;;2.33;;
67156;SDS011;54086;50.126;8.710;2023-01-10T05:41:50;9.57;;;2.10;;
67156;SDS011;54086;50.126;8.710;2023-01-10T05:44:15;9.27;;;2.30;;
67156;SDS011;54086;50.126;8.710;2023-01-10T05:46:40;8.40;;;2.20;;
67156;SDS011;54086;50.126;8.710;2023-01-10T05:49:06;7.78;;;2.22;;
67156;SDS011;54086;50.126;8.710;2023-01-10T05:51:31;7.20;;;2.27;;
67156;SDS011;54086;50.126;8.710;2023-01-10T05:53:57;9.43;;;2.33;;
67156;SDS011;54086;50.126;8.710;2023-01-10T05:56:23;10.40;;;2.50;;
67156;SDS011;54086;50.126;8.710;2023-01-10T05:58:48;8.80;;;2.30;;
67156;SDS011;54086;50.126;8.710;2023-01-10T06:01:14;8.93;;;1.90;;
67156;SDS011;54086;50.126;8.710;2023-01-10T06:03:39;11.95;;;2.90;;
67156;SDS011;54086;50.126;8.710;2023-01-10T06:06:04;9.40;;;2.33;;
67156;SDS011;54086;50.126;8.710;2023-01-10T06:08:30;13.17;;;3.10;;
67156;SDS011;54086;50.126;8.710;2023-01-10T06:10:55;8.47;;;2.60;;
67156;SDS011;54086;50.126;8.710;2023-01-10T06:13:21;10.20;;;2.67;;
67156;SDS011;54086;50.126;8.710;2023-01-10T06:15:47;9.97;;;2.63;;
67156;SDS011;54086;50.126;8.710;2023-01-10T06:18:13;7.93;;;2.30;;
67156;SDS011;54086;50.126;8.710;2023-01-10T06:20:42;11.38;;;3.00;;
67156;SDS011;54086;50.126;8.710;2023-01-10T06:23:08;12.07;;;2.70;;
67156;SDS011;54086;50.126;8.710;2023-01-10T06:25:34;9.50;;;2.55;;
67156;SDS011;54086;50.126;8.710;2023-01-10T06:28:04;9.88;;;2.83;;
67156;SDS011;54086;50.126;8.710;2023-01-10T06:30:29;11.37;;;2.93;;
67156;SDS011;54086;50.126;8.710;2023-01-10T06:32:59;12.57;;;2.80;;
67156;SDS011;54086;50.126;8.710;2023-01-10T06:35:29;10.75;;;3.05;;
67156;SDS011;54086;50.126;8.710;2023-01-10T06:37:54;13.10;;;3.10;;
67156;SDS011;54086;50.126;8.710;2023-01-10T06:40:20;10.37;;;3.30;;
67156;SDS011;54086;50.126;8.710;2023-01-10T06:42:45;12.30;;;2.87;;
67156;SDS011;54086;50.126;8.710;2023-01-10T06:45:11;12.97;;;2.83;;
67156;SDS011;54086;50.126;8.710;2023-01-10T06:47:36;10.05;;;2.58;;
67156;SDS011;54086;50.126;8.710;2023-01-10T06:50:02;10.23;;;3.67;;
67156;SDS011;54086;50.126;8.710;2023-01-10T06:52:29;7.72;;;2.45;;
67156;SDS011;54086;50.126;8.710;2023-01-10T06:54:54;11.97;;;2.90;;
67156;SDS011;54086;50.126;8.710;2023-01-10T06:57:19;13.83;;;3.37;;
67156;SDS011;54086;50.126;8.710;2023-01-10T06:59:45;11.47;;;2.77;;
67156;SDS011;54086;50.126;8.710;2023-01-10T07:02:10;13.43;;;2.70;;
67156;SDS011;54086;50.126;8.710;2023-01-10T07:04:36;7.03;;;2.70;;
67156;SDS011;54086;50.126;8.710;2023-01-10T07:07:01;13.83;;;2.80;;
67156;SDS011;54086;50.126;8.710;2023-01-10T07:09:27;10.03;;;2.70;;
67156;SDS011;54086;50.126;8.710;2023-01-10T07:11:52;9.55;;;3.15;;
67156;SDS011;54086;50.126;8.710;2023-01-10T07:14:18;7.37;;;2.10;;
67156;SDS011;54086;50.126;8.710;2023-01-10T07:16:43;7.87;;;2.27;;
67156;SDS011;54086;50.126;8.710;2023-01-10T07:19:09;11.20;;;2.70;;
67156;SDS011;54086;50.126;8.710;2023-01-10T07:21:34;13.02;;;2.53;;
67156;SDS011;54086;50.126;8.710;2023-01-10T07:23:59;13.90;;;2.43;;
67156;SDS011;54086;50.126;8.710;2023-01-10T07:26:25;10.77;;;2.90;;
67156;SDS011;54086;50.126;8.710;2023-01-10T07:28:50;15.07;;;3.33;;
67156;SDS011;54086;50.126;8.710;2023-01-10T07:31:16;13.87;;;2.83;;
67156;SDS011;54086;50.126;8.710;2023-01-10T07:33:42;9.23;;;2.38;;
67156;SDS011;54086;50.126;8.710;2023-01-10T07:36:08;13.90;;;3.03;;
67156;SDS011;54086;50.126;8.710;2023-01-10T07:38:34;9.88;;;2.92;;
67156;SDS011;54086;50.126;8.710;2023-01-10T07:41:02;13.33;;;3.20;;
67156;SDS011;54086;50.126;8.710;2023-01-10T07:43:28;7.32;;;2.63;;
67156;SDS011;54086;50.126;8.710;2023-01-10T07:45:56;10.80;;;2.28;;
67156;SDS011;54086;50.126;8.710;2023-01-10T07:48:22;8.23;;;2.50;;
67156;SDS011;54086;50.126;8.710;2023-01-10T07:50:48;14.10;;;2.83;;
67156;SDS011;54086;50.126;8.710;2023-01-10T07:53:13;12.00;;;2.70;;
67156;SDS011;54086;50.126;8.710;2023-01-10T07:55:39;7.53;;;2.20;;
67156;SDS011;54086;50.126;8.710;2023-01-10T07:58:05;10.70;;;2.80;;
67156;SDS011;54086;50.126;8.710;2023-01-10T08:00:32;9.23;;;2.40;;
67156;SDS011;54086;50.126;8.710;2023-01-10T08:02:58;10.23;;;2.67;;
67156;SDS011;54086;50.126;8.710;2023-01-10T08:05:23;8.93;;;2.00;;
67156;SDS011;54086;50.126;8.710;2023-01-10T08:07:48;12.97;;;2.63;;
67156;SDS011;54086;50.126;8.710;2023-01-10T08:10:14;12.27;;;2.30;;
67156;SDS011;54086;50.126;8.710;2023-01-10T08:12:39;11.25;;;2.20;;
67156;SDS011;54086;50.126;8.710;2023-01-10T08:15:05;8.93;;;2.13;;
67156;SDS011;54086;50.126;8.710;2023-01-10T08:17:32;9.60;;;2.22;;
67156;SDS011;54086;50.126;8.710;2023-01-10T08:19:58;11.85;;;2.85;;
67156;SDS011;54086;50.126;8.710;2023-01-10T08:22:24;11.70;;;1.83;;
67156;SDS011;54086;50.126;8.710;2023-01-10T08:24:49;9.10;;;2.00;;
67156;SDS011;54086;50.126;8.710;2023-01-10T08:27:15;7.72;;;1.88;;
67156;SDS011;54086;50.126;8.710;2023-01-10T08:29:40;12.40;;;2.43;;
67156;SDS011;54086;50.126;8.710;2023-01-10T08:32:06;7.67;;;1.90;;
67156;SDS011;54086;50.126;8.710;2023-01-10T08:34:31;14.25;;;1.98;;
67156;SDS011;54086;50.126;8.710;2023-01-10T08:36:57;7.03;;;1.93;;
67156;SDS011;54086;50.126;8.710;2023-01-10T08:39:22;12.03;;;2.03;;
67156;SDS011;54086;50.126;8.710;2023-01-10T08:41:50;11.02;;;2.47;;
67156;SDS011;54086;50.126;8.710;2023-01-10T08:44:16;10.60;;;2.40;;
67156;SDS011;54086;50.126;8.710;2023-01-10T08:46:41;9.73;;;1.77;;
67156;SDS011;54086;50.126;8.710;2023-01-10T08:49:07;6.93;;;1.77;;
67156;SDS011;54086;50.126;8.710;2023-01-10T08:51:32;8.82;;;2.20;;
67156;SDS011;54086;50.126;8.710;2023-01-10T08:53:58;11.57;;;1.93;;
67156;SDS011;54086;50.126;8.710;2023-01-10T08:56:23;8.70;;;1.80;;
67156;SDS011;54086;50.126;8.710;2023-01-10T08:58:48;9.60;;;2.20;;
67156;SDS011;54086;50.126;8.710;2023-01-10T09:01:14;8.63;;;2.00;;
67156;SDS011;54086;50.126;8.710;2023-01-10T09:03:39;11.20;;;1.88;;
67156;SDS011;54086;50.126;8.710;2023-01-10T09:06:05;10.73;;;2.07;;
67156;SDS011;54086;50.126;8.710;2023-01-10T09:08:31;9.82;;;2.40;;
67156;SDS011;54086;50.126;8.710;2023-01-10T09:10:57;14.67;;;2.17;;
67156;SDS011;54086;50.126;8.710;2023-01-10T09:13:24;11.85;;;2.03;;
67156;SDS011;54086;50.126;8.710;2023-01-10T09:15:49;11.73;;;2.10;;
67156;SDS011;54086;50.126;8.710;2023-01-10T09:18:15;11.48;;;2.55;;
67156;SDS011;54086;50.126;8.710;2023-01-10T09:20:40;10.60;;;2.20;;
67156;SDS011;54086;50.126;8.710;2023-01-10T09:23:08;10.00;;;1.85;;
67156;SDS011;54086;50.126;8.710;2023-01-10T09:25:36;6.93;;;1.77;;
67156;SDS011;54086;50.126;8.710;2023-01-10T09:28:02;10.80;;;2.00;;
67156;SDS011;54086;50.126;8.710;2023-01-10T09:30:29;10.68;;;2.33;;
67156;SDS011;54086;50.126;8.710;2023-01-10T09:32:55;11.32;;;2.50;;
67156;SDS011;54086;50.126;8.710;2023-01-10T09:35:22;9.57;;;2.03;;
67156;SDS011;54086;50.126;8.710;2023-01-10T09:37:49;14.83;;;2.87;;
67156;SDS011;54086;50.126;8.710;2023-01-10T09:40:18;11.27;;;2.28;;
67156;SDS011;54086;50.126;8.710;2023-01-10T09:45:15;10.47;;;2.10;;
67156;SDS011;54086;50.126;8.710;2023-01-10T09:47:56;11.65;;;2.35;;
67156;SDS011;54086;50.126;8.710;2023-01-10T09:50:39;13.23;;;2.53;;
67156;SDS011;54086;50.126;8.710;2023-01-10T09:53:26;9.98;;;2.17;;
67156;SDS011;54086;50.126;8.710;2023-01-10T09:55:55;9.27;;;2.10;;
67156;SDS011;54086;50.126;8.710;2023-01-10T09:58:23;12.70;;;1.85;;
67156;SDS011;54086;50.126;8.710;2023-01-10T10:00:57;14.85;;;2.17;;
67156;SDS011;54086;50.126;8.710;2023-01-10T10:03:40;10.40;;;1.92;;
67156;SDS011;54086;50.126;8.710;2023-01-10T10:06:12;12.13;;;2.42;;
67156;SDS011;54086;50.126;8.710;2023-01-10T10:08:42;9.23;;;1.80;;
67156;SDS011;54086;50.126;8.710;2023-01-10T10:11:54;13.43;;;2.00;;
67156;SDS011;54086;50.126;8.710;2023-01-10T10:19:34;15.43;;;2.10;;
67156;SDS011;54086;50.126;8.710;2023-01-10T10:25:10;10.88;;;2.10;;
67156;SDS011;54086;50.126;8.710;2023-01-10T10:28:08;8.02;;;1.63;;
67156;SDS011;54086;50.126;8.710;2023-01-10T10:30:40;11.73;;;1.80;;
67156;SDS011;54086;50.126;8.710;2023-01-10T10:33:18;8.63;;;1.60;;
67156;SDS011;54086;50.126;8.710;2023-01-10T10:35:52;15.93;;;2.47;;
67156;SDS011;54086;50.126;8.710;2023-01-10T10:38:25;12.70;;;1.90;;
67156;SDS011;54086;50.126;8.710;2023-01-10T10:40:54;12.15;;;2.10;;
67156;SDS011;54086;50.126;8.710;2023-01-10T10:43:22;9.30;;;1.90;;
67156;SDS011;54086;50.126;8.710;2023-01-10T10:45:59;11.00;;;1.87;;
67156;SDS011;54086;50.126;8.710;2023-01-10T10:48:35;9.60;;;1.98;;
67156;SDS011;54086;50.126;8.710;2023-01-10T10:54:06;7.90;;;2.15;;
67156;SDS011;54086;50.126;8.710;2023-01-10T10:56:36;10.20;;;2.47;;
67156;SDS011;54086;50.126;8.710;2023-01-10T10:59:02;11.10;;;2.57;;
67156;SDS011;54086;50.126;8.710;2023-01-10T11:01:28;10.18;;;2.28;;
67156;SDS011;54086;50.126;8.710;2023-01-10T11:03:58;11.17;;;2.60;;
67156;SDS011;54086;50.126;8.710;2023-01-10T11:06:26;10.75;;;2.08;;
67156;SDS011;54086;50.126;8.710;2023-01-10T11:08:55;7.45;;;2.70;;
67156;SDS011;54086;50.126;8.710;2023-01-10T11:11:26;12.50;;;2.23;;
67156;SDS011;54086;50.126;8.710;2023-01-10T11:27:15;11.70;;;1.98;;
67156;SDS011;54086;50.126;8.710;2023-01-10T11:29:54;13.82;;;2.35;;
67156;SDS011;54086;50.126;8.710;2023-01-10T11:32:33;14.20;;;2.15;;
67156;SDS011;54086;50.126;8.710;2023-01-10T11:35:02;9.80;;;2.22;;
67156;SDS011;54086;50.126;8.710;2023-01-10T11:37:32;12.83;;;2.20;;
67156;SDS011;54086;50.126;8.710;2023-01-10T11:42:33;14.63;;;2.38;;
67156;SDS011;54086;50.126;8.710;2023-01-10T11:47:57;10.05;;;2.20;;
67156;SDS011;54086;50.126;8.710;2023-01-10T11:50:25;11.30;;;2.05;;
67156;SDS011;54086;50.126;8.710;2023-01-10T11:52:52;10.73;;;2.42;;
67156;SDS011;54086;50.126;8.710;2023-01-10T11:55:19;14.43;;;3.17;;
67156;SDS011;54086;50.126;8.710;2023-01-10T11:57:52;15.65;;;2.33;;
67156;SDS011;54086;50.126;8.710;2023-01-10T12:00:42;11.68;;;2.00;;
67156;SDS011;54086;50.126;8.710;2023-01-10T12:03:17;12.45;;;2.10;;
67156;SDS011;54086;50.126;8.710;2023-01-10T12:05:51;8.13;;;2.13;;
67156;SDS011;54086;50.126;8.710;2023-01-10T12:08:37;10.70;;;1.90;;
67156;SDS011;54086;50.126;8.710;2023-01-10T12:11:06;15.50;;;2.80;;
67156;SDS011;54086;50.126;8.710;2023-01-10T12:13:43;13.05;;;2.70;;
67156;SDS011;54086;50.126;8.710;2023-01-10T12:16:24;12.32;;;2.00;;
67156;SDS011;54086;50.126;8.710;2023-01-10T12:18:57;9.85;;;2.22;;
67156;SDS011;54086;50.126;8.710;2023-01-10T12:21:43;11.87;;;2.33;;
67156;SDS011;54086;50.126;8.710;2023-01-10T12:24:23;10.85;;;2.38;;
67156;SDS011;54086;50.126;8.710;2023-01-10T12:26:56;10.27;;;2.10;;
67156;SDS011;54086;50.126;8.710;2023-01-10T12:29:28;11.30;;;2.10;;
67156;SDS011;54086;50.126;8.710;2023-01-10T12:32:04;16.35;;;2.60;;
67156;SDS011;54086;50.126;8.710;2023-01-10T12:34:40;17.53;;;2.50;;
67156;SDS011;54086;50.126;8.710;2023-01-10T12:37:18;8.77;;;1.90;;
67156;SDS011;54086;50.126;8.710;2023-01-10T12:40:02;11.85;;;2.40;;
67156;SDS011;54086;50.126;8.710;2023-01-10T12:42:42;10.00;;;2.42;;
67156;SDS011;54086;50.126;8.710;2023-01-10T12:45:34;9.55;;;2.20;;
67156;SDS011;54086;50.126;8.710;2023-01-10T12:50:55;12.30;;;2.10;;
67156;SDS011;54086;50.126;8.710;2023-01-10T12:53:39;10.27;;;2.00;;
67156;SDS011;54086;50.126;8.710;2023-01-10T12:56:10;8.77;;;2.30;;
67156;SDS011;54086;50.126;8.710;2023-01-10T12:58:42;15.30;;;2.50;;
67156;SDS011;54086;50.126;8.710;2023-01-10T13:01:14;14.80;;;2.70;;
67156;SDS011;54086;50.126;8.710;2023-01-10T13:03:43;7.85;;;1.80;;
67156;SDS011;54086;50.126;8.710;2023-01-10T13:06:52;9.30;;;2.30;;
67156;SDS011;54086;50.126;8.710;2023-01-10T13:09:04;15.00;;;2.80;;
67156;SDS011;54086;50.126;8.710;2023-01-10T13:11:35;9.45;;;1.95;;
67156;SDS011;54086;50.126;8.710;2023-01-10T13:14:06;9.37;;;2.20;;
67156;SDS011;54086;50.126;8.710;2023-01-10T13:21:35;10.63;;;3.03;;
67156;SDS011;54086;50.126;8.710;2023-01-10T13:24:03;15.35;;;2.90;;
67156;SDS011;54086;50.126;8.710;2023-01-10T13:26:44;13.52;;;2.92;;
67156;SDS011;54086;50.126;8.710;2023-01-10T13:29:38;11.83;;;2.60;;
67156;SDS011;54086;50.126;8.710;2023-01-10T13:32:22;13.55;;;2.72;;
67156;SDS011;54086;50.126;8.710;2023-01-10T13:34:53;11.18;;;3.10;;
67156;SDS011;54086;50.126;8.710;2023-01-10T13:37:24;11.27;;;2.40;;
67156;SDS011;54086;50.126;8.710;2023-01-10T13:40:01;12.70;;;3.20;;
67156;SDS011;54086;50.126;8.710;2023-01-10T13:42:32;11.37;;;2.13;;
67156;SDS011;54086;50.126;8.710;2023-01-10T13:45:18;11.25;;;2.72;;
67156;SDS011;54086;50.126;8.710;2023-01-10T13:55:21;13.20;;;2.20;;
67156;SDS011;54086;50.126;8.710;2023-01-10T13:57:53;9.73;;;2.25;;
67156;SDS011;54086;50.126;8.710;2023-01-10T14:00:20;14.95;;;2.40;;
67156;SDS011;54086;50.126;8.710;2023-01-10T14:03:37;15.13;;;2.40;;
67156;SDS011;54086;50.126;8.710;2023-01-10T14:08:52;12.20;;;2.37;;
67156;SDS011;54086;50.126;8.710;2023-01-10T14:14:22;16.63;;;2.58;;
67156;SDS011;54086;50.126;8.710;2023-01-10T14:16:55;13.38;;;3.05;;
67156;SDS011;54086;50.126;8.710;2023-01-10T14:19:33;10.90;;;2.15;;
67156;SDS011;54086;50.126;8.710;2023-01-10T14:21:59;10.87;;;1.80;;
67156;SDS011;54086;50.126;8.710;2023-01-10T14:24:31;13.25;;;2.60;;
67156;SDS011;54086;50.126;8.710;2023-01-10T14:27:03;9.90;;;2.20;;
67156;SDS011;54086;50.126;8.710;2023-01-10T14:29:36;11.43;;;2.60;;
67156;SDS011;54086;50.126;8.710;2023-01-10T14:32:02;12.32;;;2.33;;
67156;SDS011;54086;50.126;8.710;2023-01-10T14:34:39;14.98;;;3.00;;
67156;SDS011;54086;50.126;8.710;2023-01-10T14:37:19;8.27;;;1.80;;
67156;SDS011;54086;50.126;8.710;2023-01-10T14:39:51;12.57;;;2.10;;
67156;SDS011;54086;50.126;8.710;2023-01-10T14:42:19;13.60;;;2.03;;
67156;SDS011;54086;50.126;8.710;2023-01-10T14:48:26;17.63;;;2.67;;
67156;SDS011;54086;50.126;8.710;2023-01-10T14:53:42;14.00;;;2.63;;
67156;SDS011;54086;50.126;8.710;2023-01-10T14:56:21;9.60;;;1.70;;
67156;SDS011;54086;50.126;8.710;2023-01-10T14:58:48;12.13;;;1.92;;
67156;SDS011;54086;50.126;8.710;2023-01-10T15:01:21;11.87;;;1.97;;
67156;SDS011;54086;50.126;8.710;2023-01-10T15:03:49;11.35;;;2.53;;
67156;SDS011;54086;50.126;8.710;2023-01-10T15:06:15;13.13;;;2.33;;
67156;SDS011;54086;50.126;8.710;2023-01-10T15:08:41;11.83;;;2.47;;
67156;SDS011;54086;50.126;8.710;2023-01-10T15:11:08;13.57;;;2.17;;
67156;SDS011;54086;50.126;8.710;2023-01-10T15:13:40;11.00;;;2.40;;
67156;SDS011;54086;50.126;8.710;2023-01-10T15:16:16;11.20;;;2.03;;
67156;SDS011;54086;50.126;8.710;2023-01-10T15:18:44;15.07;;;3.03;;
67156;SDS011;54086;50.126;8.710;2023-01-10T15:21:11;10.80;;;2.33;;
67156;SDS011;54086;50.126;8.710;2023-01-10T15:23:39;9.57;;;2.10;;
67156;SDS011;54086;50.126;8.710;2023-01-10T15:26:07;10.90;;;2.25;;
67156;SDS011;54086;50.126;8.710;2023-01-10T15:28:40;18.90;;;2.58;;
67156;SDS011;54086;50.126;8.710;2023-01-10T15:31:07;12.27;;;2.95;;
67156;SDS011;54086;50.126;8.710;2023-01-10T15:33:35;14.23;;;2.17;;
67156;SDS011;54086;50.126;8.710;2023-01-10T15:36:03;12.57;;;2.67;;
67156;SDS011;54086;50.126;8.710;2023-01-10T15:38:30;17.20;;;3.53;;
67156;SDS011;54086;50.126;8.710;2023-01-10T15:41:01;10.07;;;2.13;;
67156;SDS011;54086;50.126;8.710;2023-01-10T15:43:30;12.52;;;2.78;;
67156;SDS011;54086;50.126;8.710;2023-01-10T15:45:59;13.47;;;2.47;;
67156;SDS011;54086;50.126;8.710;2023-01-10T15:48:36;15.27;;;2.65;;
67156;SDS011;54086;50.126;8.710;2023-01-10T15:54:26;13.30;;;3.05;;
67156;SDS011;54086;50.126;8.710;2023-01-10T15:56:54;11.40;;;2.30;;
67156;SDS011;54086;50.126;8.710;2023-01-10T15:59:40;11.60;;;2.40;;
67156;SDS011;54086;50.126;8.710;2023-01-10T16:04:36;11.27;;;2.38;;
67156;SDS011;54086;50.126;8.710;2023-01-10T16:07:45;12.60;;;2.40;;
67156;SDS011;54086;50.126;8.710;2023-01-10T16:12:33;10.98;;;2.58;;
67156;SDS011;54086;50.126;8.710;2023-01-10T16:15:20;21.48;;;3.80;;
67156;SDS011;54086;50.126;8.710;2023-01-10T16:17:47;12.13;;;2.45;;
67156;SDS011;54086;50.126;8.710;2023-01-10T16:20:14;12.97;;;2.50;;
67156;SDS011;54086;50.126;8.710;2023-01-10T16:22:41;13.47;;;2.43;;
67156;SDS011;54086;50.126;8.710;2023-01-10T16:25:15;12.20;;;2.92;;
67156;SDS011;54086;50.126;8.710;2023-01-10T16:27:43;11.10;;;2.35;;
67156;SDS011;54086;50.126;8.710;2023-01-10T16:30:28;12.95;;;3.10;;
67156;SDS011;54086;50.126;8.710;2023-01-10T16:32:55;11.50;;;2.65;;
67156;SDS011;54086;50.126;8.710;2023-01-10T16:35:22;10.00;;;2.40;;
67156;SDS011;54086;50.126;8.710;2023-01-10T16:37:48;17.67;;;2.42;;
67156;SDS011;54086;50.126;8.710;2023-01-10T16:40:23;12.82;;;2.50;;
67156;SDS011;54086;50.126;8.710;2023-01-10T16:42:51;10.63;;;2.35;;